Time;durP1;ratioP1;P1;durP2;ratioP2;P2;SDS_P1;SDS_P2;PMS_P1;PMS_P2;Temp;Humidity;BMP_temperature;BMP_pressure;BME280_temperature;BME280_humidity;BME280_pressure;Samples;Min_cycle;Max_cycle;Signal;HPM_P1;HPM_P2
2023/08/15 04:05:39;;;;;;;5.00;4.60;;;20.80;99.90;;;;;;5515051;23;20480;-63
2023/08/15 04:08:05;;;;;;;5.13;4.60;;;20.80;99.90;;;;;;4959067;28;20382;-62
2023/08/15 04:10:30;;;;;;;4.90;4.40;;;20.70;99.90;;;;;;4976680;28;20412;-62
2023/08/15 04:12:56;;;;;;;5.30;4.80;;;20.70;99.90;;;;;;4976647;28;20382;-62
2023/08/15 04:15:22;;;;;;;7.30;5.40;;;20.70;99.90;;;;;;4976132;28;20203;-62
2023/08/15 04:17:47;;;;;;;5.57;5.00;;;20.70;99.90;;;;;;4976590;28;20191;-62
2023/08/15 04:20:13;;;;;;;7.60;3.90;;;20.60;99.90;;;;;;4976416;28;20513;-61
2023/08/15 04:22:39;;;;;;;4.57;4.17;;;20.70;99.90;;;;;;4976382;28;20678;-62
2023/08/15 04:25:11;;;;;;;5.00;4.60;;;20.60;99.90;;;;;;4975641;28;20802;-62
2023/08/15 04:27:37;;;;;;;5.10;4.63;;;20.60;99.90;;;;;;4976347;28;20407;-62
2023/08/15 04:30:06;;;;;;;4.70;4.30;;;20.60;99.90;;;;;;4976233;28;20416;-62
2023/08/15 04:32:32;;;;;;;5.00;4.60;;;20.60;99.90;;;;;;4976129;28;20382;-62
2023/08/15 04:34:57;;;;;;;4.50;4.10;;;20.60;99.90;;;;;;4974828;28;20420;-62
2023/08/15 04:37:23;;;;;;;4.53;4.23;;;20.60;99.90;;;;;;4976026;28;20504;-62
2023/08/15 04:39:49;;;;;;;4.40;4.00;;;20.70;99.90;;;;;;4975847;28;20227;-62
2023/08/15 04:42:15;;;;;;;5.10;4.70;;;20.80;99.90;;;;;;4975687;28;20204;-62
2023/08/15 04:44:40;;;;;;;5.13;4.63;;;20.80;99.90;;;;;;4975391;28;20207;-62
2023/08/15 04:47:06;;;;;;;4.10;3.60;;;20.80;99.90;;;;;;4976084;28;20165;-62
2023/08/15 04:49:33;;;;;;;4.67;4.27;;;20.80;99.90;;;;;;4975933;28;20168;-62
2023/08/15 04:51:59;;;;;;;5.73;5.13;;;20.80;99.90;;;;;;4976174;28;20315;-62
2023/08/15 04:54:25;;;;;;;4.47;4.07;;;20.80;99.90;;;;;;4975368;28;20423;-62
2023/08/15 04:56:50;;;;;;;5.33;4.53;;;20.80;99.90;;;;;;4975740;28;20781;-62
2023/08/15 04:59:17;;;;;;;5.70;4.97;;;20.90;99.90;;;;;;4975814;28;20263;-62
2023/08/15 05:01:43;;;;;;;4.53;4.00;;;20.90;99.90;;;;;;4975274;28;20212;-62
2023/08/15 05:04:08;;;;;;;4.13;3.73;;;20.90;99.90;;;;;;4975444;28;20423;-63
2023/08/15 05:06:34;;;;;;;5.53;4.93;;;21.00;99.90;;;;;;4975280;28;20207;-62
2023/08/15 05:09:00;;;;;;;5.80;4.80;;;21.00;99.90;;;;;;4975614;28;20231;-62
2023/08/15 05:11:25;;;;;;;7.40;4.73;;;21.00;99.90;;;;;;4975372;28;20650;-62
2023/08/15 05:13:51;;;;;;;4.30;3.90;;;21.10;99.90;;;;;;4975309;28;20258;-62
2023/08/15 05:16:16;;;;;;;4.33;3.93;;;21.10;99.90;;;;;;4975313;28;20196;-62
2023/08/15 05:18:42;;;;;;;4.40;4.00;;;21.20;99.90;;;;;;4975194;28;20180;-62
2023/08/15 05:21:08;;;;;;;4.90;4.50;;;21.30;99.90;;;;;;4975299;28;20196;-62
2023/08/15 05:23:33;;;;;;;5.03;4.50;;;21.30;99.90;;;;;;4974968;28;20168;-63
2023/08/15 05:25:59;;;;;;;5.00;4.60;;;21.30;99.90;;;;;;4975031;28;20200;-62
2023/08/15 05:28:24;;;;;;;4.53;4.10;;;21.40;99.90;;;;;;4975355;28;20176;-62
2023/08/15 05:30:50;;;;;;;4.60;4.20;;;21.40;99.90;;;;;;4957767;28;20185;-63
2023/08/15 05:33:16;;;;;;;5.70;4.50;;;21.60;99.90;;;;;;4974985;28;20177;-62
2023/08/15 05:35:42;;;;;;;5.50;5.00;;;21.70;99.90;;;;;;4974256;28;20326;-62
2023/08/15 05:38:08;;;;;;;5.70;5.30;;;21.80;99.90;;;;;;4974451;28;20196;-62
2023/08/15 05:40:33;;;;;;;4.00;3.70;;;21.90;99.90;;;;;;4957551;28;20404;-62
2023/08/15 05:42:59;;;;;;;4.83;3.60;;;22.10;99.90;;;;;;4974800;28;20166;-63
2023/08/15 05:45:25;;;;;;;4.40;4.10;;;22.30;99.90;;;;;;4974469;28;20195;-63
2023/08/15 05:47:50;;;;;;;4.47;4.17;;;22.60;99.90;;;;;;4974811;28;20177;-62
2023/08/15 05:50:16;;;;;;;4.13;3.83;;;22.80;99.90;;;;;;4974848;28;20693;-62
2023/08/15 05:52:41;;;;;;;4.50;4.10;;;23.10;99.90;;;;;;4975081;28;20202;-62
2023/08/15 05:55:07;;;;;;;3.63;3.23;;;23.20;99.90;;;;;;4974333;28;20195;-63
2023/08/15 05:57:33;;;;;;;5.97;3.10;;;23.40;99.90;;;;;;4974748;28;20176;-62
2023/08/15 05:59:59;;;;;;;3.53;3.33;;;23.70;99.90;;;;;;4974803;28;20383;-62
2023/08/15 06:02:25;;;;;;;3.67;3.37;;;24.00;99.90;;;;;;4974781;28;20628;-62
2023/08/15 06:04:51;;;;;;;4.80;3.43;;;24.00;99.90;;;;;;4974205;28;20275;-62
2023/08/15 06:07:16;;;;;;;4.57;4.17;;;24.10;99.90;;;;;;4974490;28;20510;-63
2023/08/15 06:09:43;;;;;;;3.80;3.50;;;24.20;99.90;;;;;;4974687;28;20165;-63
2023/08/15 06:12:09;;;;;;;3.70;3.40;;;24.30;99.90;;;;;;4974798;28;20219;-63
2023/08/15 06:14:37;;;;;;;4.07;3.70;;;24.40;99.90;;;;;;4974351;28;20800;-62
2023/08/15 06:17:04;;;;;;;3.90;3.60;;;24.40;99.90;;;;;;4974740;28;20446;-64
2023/08/15 06:19:29;;;;;;;4.03;3.73;;;24.30;99.90;;;;;;4974603;28;20398;-63
2023/08/15 06:21:55;;;;;;;3.97;3.57;;;24.20;99.90;;;;;;4974569;28;20421;-63
2023/08/15 06:24:20;;;;;;;3.47;3.17;;;24.20;99.90;;;;;;4974139;28;20574;-62
2023/08/15 06:26:46;;;;;;;4.00;3.60;;;24.10;99.90;;;;;;4974633;28;20204;-63
2023/08/15 06:29:11;;;;;;;8.03;3.77;;;24.20;99.90;;;;;;4974638;28;20639;-62
2023/08/15 06:31:37;;;;;;;3.43;3.13;;;24.20;99.90;;;;;;4974520;28;20168;-62
2023/08/15 06:34:03;;;;;;;3.77;3.47;;;24.20;99.90;;;;;;4974116;28;20644;-62
2023/08/15 06:36:30;;;;;;;3.83;3.53;;;24.30;99.90;;;;;;4974425;28;20200;-62
2023/08/15 06:38:56;;;;;;;3.83;3.53;;;24.50;99.90;;;;;;4974452;28;20506;-62
2023/08/15 06:41:21;;;;;;;5.40;3.83;;;24.60;99.90;;;;;;4974165;28;20541;-62
2023/08/15 06:43:47;;;;;;;4.87;4.03;;;24.70;99.90;;;;;;4974111;28;20693;-63
2023/08/15 06:46:14;;;;;;;5.03;3.63;;;24.80;99.90;;;;;;4974196;28;20614;-62
2023/08/15 06:48:40;;;;;;;4.40;4.10;;;24.80;99.90;;;;;;4977018;28;20168;-62
2023/08/15 06:51:05;;;;;;;4.13;3.73;;;24.90;99.90;;;;;;4977890;28;20889;-62
2023/08/15 06:53:31;;;;;;;4.33;4.03;;;25.00;99.90;;;;;;4977759;28;20482;-63
2023/08/15 06:55:57;;;;;;;4.53;4.13;;;25.10;99.90;;;;;;4977986;28;20224;-62
2023/08/15 06:58:24;;;;;;;7.07;4.43;;;25.20;99.90;;;;;;4977805;28;20919;-62
2023/08/15 07:00:49;;;;;;;4.90;4.50;;;25.30;99.90;;;;;;4977901;28;20803;-62
2023/08/15 07:03:15;;;;;;;4.87;4.37;;;25.40;99.90;;;;;;4977912;28;20414;-64
2023/08/15 07:05:41;;;;;;;7.47;4.87;;;25.50;99.90;;;;;;4977269;28;20275;-63
2023/08/15 07:08:07;;;;;;;5.20;4.80;;;25.50;99.90;;;;;;4977862;28;20478;-63
2023/08/15 07:10:34;;;;;;;9.90;3.60;;;25.60;99.90;;;;;;4977839;28;20415;-63
2023/08/15 07:12:59;;;;;;;4.77;4.37;;;25.80;99.90;;;;;;4977914;28;20569;-62
2023/08/15 07:15:25;;;;;;;4.67;4.27;;;26.00;99.90;;;;;;4977194;28;20448;-62
2023/08/15 07:17:50;;;;;;;9.40;4.50;;;26.40;99.90;;;;;;4977530;28;20175;-62
2023/08/15 07:20:16;;;;;;;5.40;4.90;;;26.50;99.90;;;;;;4977357;28;20266;-61
2023/08/15 07:22:42;;;;;;;4.23;3.93;;;26.80;99.90;;;;;;4977244;28;20207;-62
2023/08/15 07:25:08;;;;;;;4.43;4.03;;;27.10;99.90;;;;;;4977186;28;20203;-63
2023/08/15 07:27:34;;;;;;;4.47;4.07;;;27.30;99.90;;;;;;4977650;28;20178;-62
2023/08/15 07:30:00;;;;;;;5.00;4.43;;;27.40;99.90;;;;;;4960124;28;20607;-63
2023/08/15 07:32:28;;;;;;;4.07;3.77;;;27.60;99.90;;;;;;4977504;28;20658;-62
2023/08/15 07:34:54;;;;;;;4.87;4.47;;;27.70;99.90;;;;;;4976749;28;20296;-62
2023/08/15 07:37:20;;;;;;;4.83;4.43;;;27.70;99.90;;;;;;4977052;28;20797;-62
2023/08/15 07:39:45;;;;;;;4.47;4.17;;;27.80;99.90;;;;;;4977079;28;20403;-62
2023/08/15 07:42:11;;;;;;;4.57;4.17;;;27.80;99.90;;;;;;4976959;28;20283;-62
2023/08/15 07:44:37;;;;;;;5.07;4.37;;;27.90;99.90;;;;;;4976995;28;20684;-62
2023/08/15 07:47:03;;;;;;;5.10;4.70;;;28.20;99.90;;;;;;4977107;28;20412;-62
2023/08/15 07:49:30;;;;;;;4.77;4.40;;;28.60;99.90;;;;;;4977071;28;20196;-62
2023/08/15 07:51:56;;;;;;;5.43;4.43;;;29.30;99.90;;;;;;4959752;28;20239;-63
2023/08/15 07:54:22;;;;;;;5.07;4.67;;;30.30;99.90;;;;;;4976536;28;20415;-63
2023/08/15 07:56:47;;;;;;;5.40;5.00;;;31.50;99.90;;;;;;4976932;28;20211;-61
2023/08/15 07:59:13;;;;;;;4.77;4.37;;;32.80;99.90;;;;;;4976545;28;20693;-61
2023/08/15 08:01:38;;;;;;;7.73;4.97;;;33.20;99.50;;;;;;4976854;28;20189;-62
2023/08/15 08:04:04;;;;;;;4.90;4.50;;;33.00;99.10;;;;;;4976550;28;20535;-62
2023/08/15 08:06:30;;;;;;;3.93;3.63;;;32.80;99.90;;;;;;4976504;28;20246;-62
2023/08/15 08:08:57;;;;;;;5.10;4.70;;;32.70;99.50;;;;;;4976730;28;20420;-62
2023/08/15 08:11:23;;;;;;;5.60;5.10;;;32.30;99.60;;;;;;4976764;28;20191;-62
2023/08/15 08:13:48;;;;;;;5.20;4.40;;;32.10;99.50;;;;;;4976301;28;20390;-62
2023/08/15 08:16:14;;;;;;;5.53;5.13;;;31.80;99.90;;;;;;4976561;28;20207;-62
2023/08/15 08:18:39;;;;;;;5.40;4.90;;;31.70;99.90;;;;;;4976586;28;20180;-62
2023/08/15 08:21:08;;;;;;;5.83;4.70;;;31.60;99.90;;;;;;4976193;28;20204;-63
2023/08/15 08:23:33;;;;;;;5.50;5.00;;;31.60;99.90;;;;;;4976199;28;20602;-62
2023/08/15 08:25:59;;;;;;;4.50;4.17;;;31.50;99.90;;;;;;4976261;28;20403;-61
2023/08/15 08:28:25;;;;;;;5.20;4.80;;;31.40;99.90;;;;;;4976307;28;20172;-63
2023/08/15 08:30:51;;;;;;;4.90;4.50;;;31.40;99.90;;;;;;4976162;28;20176;-62
2023/08/15 08:33:18;;;;;;;5.60;5.10;;;31.40;99.90;;;;;;4976187;28;20460;-62
2023/08/15 08:35:43;;;;;;;4.80;4.40;;;31.30;99.90;;;;;;4975935;28;20199;-61
2023/08/15 08:38:09;;;;;;;5.20;4.80;;;31.20;99.90;;;;;;4976179;28;20909;-62
2023/08/15 08:40:34;;;;;;;5.77;4.47;;;31.30;99.90;;;;;;4976109;28;20535;-62
2023/08/15 08:43:00;;;;;;;5.80;5.17;;;31.50;99.90;;;;;;4975961;28;20613;-62
2023/08/15 08:45:29;;;;;;;4.53;4.20;;;31.50;99.90;;;;;;4975674;28;20204;-61
2023/08/15 08:47:54;;;;;;;5.67;5.10;;;31.30;99.90;;;;;;4975878;28;20258;-61
2023/08/15 08:50:20;;;;;;;6.10;5.53;;;31.00;99.90;;;;;;4975698;28;20459;-61
2023/08/15 08:52:49;;;;;;;6.13;5.53;;;30.80;99.90;;;;;;4975739;28;20204;-62
2023/08/15 08:55:19;;;;;;;5.30;4.90;;;30.70;99.90;;;;;;4975332;28;20775;-63
2023/08/15 08:57:52;;;;;;;5.37;4.87;;;30.60;99.90;;;;;;4975964;28;20383;-63
2023/08/15 09:00:23;;;;;;;4.73;4.33;;;30.60;99.90;;;;;;4975632;28;20401;-63
2023/08/15 09:02:50;;;;;;;5.03;4.03;;;30.50;99.90;;;;;;4975650;28;20531;-61
2023/08/15 09:05:16;;;;;;;4.93;4.53;;;30.60;99.90;;;;;;4975301;28;20776;-62
2023/08/15 09:07:42;;;;;;;4.67;4.27;;;30.90;99.90;;;;;;4975407;28;20415;-62
2023/08/15 09:10:08;;;;;;;4.47;4.10;;;31.90;99.90;;;;;;4975518;28;20490;-62
2023/08/15 09:12:38;;;;;;;5.23;4.47;;;33.20;98.80;;;;;;4974626;28;20444;-62
2023/08/15 09:15:06;;;;;;;5.07;4.67;;;34.70;96.80;;;;;;4974962;28;20474;-63
2023/08/15 09:17:32;;;;;;;5.87;5.40;;;35.40;95.50;;;;;;4975270;28;20420;-63
2023/08/15 09:20:10;;;;;;;4.87;4.47;;;35.60;94.90;;;;;;4975165;28;20463;-63
2023/08/15 09:22:41;;;;;;;5.20;4.80;;;35.40;94.60;;;;;;4975172;28;20294;-61
2023/08/15 09:25:08;;;;;;;5.10;4.70;;;34.90;94.90;;;;;;4974804;28;20797;-61
2023/08/15 09:27:34;;;;;;;5.57;5.07;;;34.30;95.40;;;;;;4975221;28;20450;-63
2023/08/15 09:30:14;;;;;;;6.00;5.60;;;33.60;96.80;;;;;;4975221;28;20921;-63
2023/08/15 09:32:44;;;;;;;5.17;4.77;;;33.20;97.50;;;;;;4975415;28;20188;-61
2023/08/15 09:35:13;;;;;;;4.33;4.03;;;32.90;97.50;;;;;;4974806;28;20463;-63
2023/08/15 09:37:44;;;;;;;5.10;4.60;;;32.60;97.50;;;;;;4975100;28;20415;-63
2023/08/15 09:40:15;;;;;;;4.70;4.37;;;32.20;97.80;;;;;;4975005;28;20420;-63
2023/08/15 09:42:41;;;;;;;5.10;4.70;;;31.80;98.50;;;;;;4975021;28;20545;-63
2023/08/15 09:45:08;;;;;;;5.23;4.77;;;31.50;99.00;;;;;;4974525;28;20466;-63
2023/08/15 09:47:36;;;;;;;4.83;4.30;;;31.20;99.20;;;;;;4974931;28;20211;-61
2023/08/15 09:50:04;;;;;;;5.23;4.83;;;31.00;99.70;;;;;;4974680;28;20495;-62
2023/08/15 09:52:29;;;;;;;5.13;4.60;;;30.70;99.90;;;;;;4974761;28;20404;-62
2023/08/15 09:54:56;;;;;;;5.27;4.77;;;30.40;99.90;;;;;;4974364;28;20432;-62
2023/08/15 09:57:21;;;;;;;4.93;4.53;;;30.30;99.90;;;;;;4957618;28;20535;-63
2023/08/15 09:59:47;;;;;;;5.50;4.10;;;30.20;99.90;;;;;;4974836;28;20507;-63
2023/08/15 10:02:21;;;;;;;5.87;4.37;;;30.10;99.90;;;;;;4974679;28;20206;-62
2023/08/15 10:04:54;;;;;;;4.60;4.13;;;30.20;99.90;;;;;;4974334;28;20600;-62
2023/08/15 10:07:21;;;;;;;3.93;3.50;;;30.30;99.90;;;;;;4974597;28;20479;-62
2023/08/15 10:09:48;;;;;;;4.93;4.53;;;30.40;99.90;;;;;;4974528;28;20423;-62
2023/08/15 10:12:14;;;;;;;3.47;3.20;;;30.60;99.90;;;;;;4974650;28;20419;-62
2023/08/15 10:14:41;;;;;;;3.00;2.80;;;30.80;97.80;;;;;;4974130;28;21020;-62
2023/08/15 10:17:07;;;;;;;3.20;2.23;;;31.10;96.00;;;;;;4974616;28;20543;-62
2023/08/15 10:19:33;;;;;;;2.97;2.67;;;31.40;92.30;;;;;;4974593;28;20239;-62
2023/08/15 10:22:02;;;;;;;4.60;2.33;;;31.70;92.40;;;;;;4974239;28;20463;-62
2023/08/15 10:24:29;;;;;;;2.30;2.10;;;32.00;91.60;;;;;;4978263;28;20601;-62
2023/08/15 10:26:58;;;;;;;3.27;2.00;;;32.10;91.00;;;;;;4978569;28;20450;-62
2023/08/15 10:29:25;;;;;;;2.43;2.23;;;32.20;90.60;;;;;;4978515;28;20433;-62
2023/08/15 10:31:59;;;;;;;3.13;2.10;;;32.30;90.40;;;;;;4978389;28;20420;-62
2023/08/15 10:34:24;;;;;;;1.80;1.70;;;32.20;90.30;;;;;;4978143;28;20404;-63
2023/08/15 10:37:38;;;;;;;2.30;2.10;;;32.20;91.30;;;;;;4978405;28;20414;-61
2023/08/15 10:40:05;;;;;;;2.47;2.27;;;32.20;91.30;;;;;;4976257;28;20188;-63
2023/08/15 10:43:02;;;;;;;5.07;4.60;;;32.20;90.00;;;;;;4977992;28;20459;-62
2023/08/15 10:45:55;;;;;;;2.70;2.50;;;32.10;89.00;;;;;;4977662;28;20435;-62
2023/08/15 10:49:13;;;;;;;2.17;2.07;;;31.90;90.20;;;;;;4978142;28;20411;-63
2023/08/15 10:51:41;;;;;;;2.30;2.10;;;31.80;91.20;;;;;;4896983;29;20438;-62
2023/08/15 10:54:13;;;;;;;2.53;2.33;;;31.70;90.20;;;;;;4971839;28;20478;-62
2023/08/15 10:56:40;;;;;;;2.27;2.10;;;31.50;90.70;;;;;;4978083;28;20427;-62
2023/08/15 10:59:08;;;;;;;3.47;3.17;;;31.50;90.90;;;;;;4977896;28;20898;-62
2023/08/15 11:01:38;;;;;;;1.97;1.87;;;31.60;91.70;;;;;;4977850;28;20440;-64
2023/08/15 11:04:06;;;;;;;4.90;2.60;;;32.20;92.60;;;;;;4977540;28;20400;-63
2023/08/15 11:06:46;;;;;;;2.20;2.10;;;33.40;92.00;;;;;;4977563;28;20473;-62
2023/08/15 11:09:12;;;;;;;2.70;2.50;;;34.70;87.90;;;;;;4977755;28;20794;-62
2023/08/15 11:11:38;;;;;;;2.60;2.40;;;35.40;82.10;;;;;;4977766;28;20404;-61
2023/08/15 11:14:04;;;;;;;2.77;2.57;;;35.60;81.10;;;;;;4977232;28;20503;-61
2023/08/15 11:16:30;;;;;;;2.90;2.70;;;35.60;80.60;;;;;;4960071;28;20662;-62
2023/08/15 11:18:57;;;;;;;2.23;2.10;;;35.40;78.90;;;;;;4960195;28;20207;-62
2023/08/15 11:21:27;;;;;;;2.10;2.00;;;35.20;83.10;;;;;;4977398;28;20482;-62
2023/08/15 11:23:57;;;;;;;2.47;2.27;;;34.90;82.50;;;;;;4977173;28;20902;-62
2023/08/15 11:26:23;;;;;;;1.90;1.80;;;34.80;82.90;;;;;;4977048;28;20441;-62
2023/08/15 11:28:49;;;;;;;1.90;1.80;;;34.50;81.60;;;;;;4977263;28;20419;-61
2023/08/15 11:31:16;;;;;;;2.90;2.20;;;34.30;79.00;;;;;;4977276;28;20408;-62
2023/08/15 11:33:42;;;;;;;2.43;2.20;;;34.10;79.50;;;;;;4976749;28;20519;-63
2023/08/15 11:36:10;;;;;;;2.03;1.80;;;33.90;79.40;;;;;;4976607;28;20489;-62
2023/08/15 11:38:38;;;;;;;3.73;2.00;;;33.50;79.50;;;;;;4977306;28;20419;-62
2023/08/15 11:41:04;;;;;;;2.13;1.93;;;33.20;77.90;;;;;;4976947;28;20445;-62
2023/08/15 11:43:33;;;;;;;1.70;1.60;;;32.90;81.00;;;;;;4976717;28;20487;-63
2023/08/15 11:46:06;;;;;;;2.47;2.27;;;32.70;82.60;;;;;;4977037;28;20551;-62
2023/08/15 11:48:33;;;;;;;2.57;2.37;;;32.60;86.00;;;;;;4977078;28;20868;-63
2023/08/15 11:50:59;;;;;;;2.13;2.03;;;32.60;86.90;;;;;;4977153;28;20462;-63
2023/08/15 11:53:25;;;;;;;1.80;1.70;;;32.60;85.30;;;;;;4976781;28;20536;-63
2023/08/15 11:55:51;;;;;;;2.30;2.20;;;32.50;85.70;;;;;;4976888;28;20961;-62
2023/08/15 11:58:23;;;;;;;2.70;2.50;;;32.40;88.70;;;;;;4977007;28;20164;-62
2023/08/15 12:00:54;;;;;;;2.57;2.30;;;32.30;86.60;;;;;;4976849;28;20434;-62
2023/08/15 12:03:20;;;;;;;2.50;2.30;;;32.20;88.20;;;;;;4976653;28;20420;-62
2023/08/15 12:05:49;;;;;;;2.60;2.40;;;32.00;90.30;;;;;;4976522;28;20442;-63
2023/08/15 12:08:16;;;;;;;2.90;2.70;;;31.90;90.80;;;;;;4976752;28;20168;-62
2023/08/15 12:10:43;;;;;;;3.07;2.87;;;31.70;89.10;;;;;;4976908;28;20507;-61
2023/08/15 12:13:08;;;;;;;3.10;2.87;;;31.60;90.80;;;;;;4976523;28;20407;-62
2023/08/15 12:15:34;;;;;;;4.00;3.07;;;31.50;91.40;;;;;;4976150;28;20448;-61
2023/08/15 12:18:00;;;;;;;2.90;2.70;;;31.30;91.20;;;;;;4976591;28;20315;-62
2023/08/15 12:20:25;;;;;;;2.77;2.57;;;31.30;92.00;;;;;;4976482;28;20184;-62
2023/08/15 12:22:51;;;;;;;3.17;2.97;;;31.30;92.90;;;;;;4976376;28;20291;-62
2023/08/15 12:25:16;;;;;;;3.43;3.13;;;31.20;92.10;;;;;;4975958;28;20193;-62
2023/08/15 12:27:42;;;;;;;3.03;2.73;;;31.10;92.00;;;;;;4976314;28;20176;-62
2023/08/15 12:30:08;;;;;;;3.47;3.17;;;31.10;92.00;;;;;;4976406;28;20280;-63
2023/08/15 12:32:33;;;;;;;3.30;3.00;;;31.00;92.80;;;;;;4976389;28;20176;-62
2023/08/15 12:34:59;;;;;;;5.33;3.10;;;30.90;92.60;;;;;;4975687;28;20192;-62
2023/08/15 12:37:25;;;;;;;3.30;3.00;;;30.90;93.50;;;;;;4976692;28;20215;-62
2023/08/15 12:39:51;;;;;;;3.40;3.10;;;31.00;93.70;;;;;;4975984;28;20655;-62
2023/08/15 12:42:16;;;;;;;3.60;3.30;;;31.00;93.40;;;;;;4976307;28;20426;-62
2023/08/15 12:44:42;;;;;;;3.73;3.30;;;31.10;94.40;;;;;;4975662;28;20410;-63
2023/08/15 12:47:11;;;;;;;4.00;3.67;;;31.10;93.10;;;;;;4975906;28;20175;-61
2023/08/15 12:49:37;;;;;;;3.40;3.17;;;31.10;93.10;;;;;;4975908;28;20473;-61
2023/08/15 12:52:07;;;;;;;4.90;3.70;;;31.00;94.20;;;;;;4975700;28;20418;-61
2023/08/15 12:54:33;;;;;;;4.40;3.70;;;31.00;93.50;;;;;;4975486;28;20431;-62
2023/08/15 12:57:00;;;;;;;4.20;3.90;;;30.90;94.50;;;;;;4975813;28;20419;-62
2023/08/15 12:59:26;;;;;;;3.60;3.30;;;30.90;94.70;;;;;;4958296;28;20510;-62
2023/08/15 13:01:52;;;;;;;4.10;3.80;;;30.90;94.80;;;;;;4975685;28;20478;-62
2023/08/15 13:04:18;;;;;;;4.53;4.13;;;30.90;94.40;;;;;;4975064;28;20412;-62
2023/08/15 13:06:44;;;;;;;3.73;3.43;;;30.90;95.00;;;;;;4975445;28;20252;-63
2023/08/15 13:09:09;;;;;;;3.80;3.50;;;31.00;94.80;;;;;;4975599;28;20390;-62
2023/08/15 13:11:36;;;;;;;5.43;3.80;;;31.00;94.80;;;;;;4975620;28;20271;-62
2023/08/15 13:14:03;;;;;;;3.40;3.10;;;31.00;94.10;;;;;;4975154;28;20200;-62
2023/08/15 13:16:29;;;;;;;4.00;3.70;;;30.90;95.00;;;;;;4975325;28;20491;-62
2023/08/15 13:18:55;;;;;;;3.37;3.07;;;30.80;94.70;;;;;;4975173;28;20929;-62
2023/08/15 13:21:21;;;;;;;4.27;3.87;;;30.80;95.30;;;;;;4975040;28;20433;-63
2023/08/15 13:23:46;;;;;;;3.13;2.93;;;30.80;95.20;;;;;;4975366;28;20574;-62
2023/08/15 13:26:13;;;;;;;5.53;2.77;;;30.90;94.40;;;;;;4975282;28;20200;-61
2023/08/15 13:28:39;;;;;;;3.10;2.90;;;30.80;93.70;;;;;;4975303;28;20661;-62
2023/08/15 13:31:04;;;;;;;4.00;3.20;;;30.70;93.90;;;;;;4975191;28;20394;-62
2023/08/15 13:33:31;;;;;;;4.10;3.43;;;30.70;94.20;;;;;;4974736;28;20397;-63
2023/08/15 13:35:56;;;;;;;3.33;3.03;;;30.60;93.00;;;;;;4975067;28;20200;-63
2023/08/15 13:38:22;;;;;;;3.40;2.87;;;30.50;93.10;;;;;;4975018;28;20400;-62
2023/08/15 13:40:48;;;;;;;3.20;3.00;;;30.40;93.00;;;;;;4975093;28;20172;-62
2023/08/15 13:43:13;;;;;;;3.07;2.83;;;30.20;94.80;;;;;;4975076;28;20176;-63
2023/08/15 13:45:39;;;;;;;3.23;3.00;;;30.20;94.00;;;;;;4974437;28;20230;-62
2023/08/15 13:48:05;;;;;;;3.07;2.87;;;30.20;94.40;;;;;;4974672;28;20696;-62
2023/08/15 13:50:31;;;;;;;4.50;3.80;;;30.20;94.70;;;;;;4975004;28;20176;-63
2023/08/15 13:52:56;;;;;;;3.50;2.80;;;30.10;93.80;;;;;;4974967;28;20508;-62
2023/08/15 13:55:22;;;;;;;3.80;3.30;;;30.10;93.70;;;;;;4974309;28;20274;-61
2023/08/15 13:57:47;;;;;;;2.70;2.50;;;30.00;94.10;;;;;;4974432;28;20192;-61
2023/08/15 14:00:13;;;;;;;3.40;3.20;;;30.00;94.70;;;;;;4974840;28;20168;-61
2023/08/15 14:02:39;;;;;;;3.40;3.00;;;29.90;94.40;;;;;;4974707;28;20685;-61
2023/08/15 14:05:05;;;;;;;4.07;3.70;;;29.90;94.00;;;;;;4974379;28;20498;-61
2023/08/15 14:07:32;;;;;;;3.17;2.90;;;29.80;95.00;;;;;;4974733;28;20180;-61
2023/08/15 14:09:58;;;;;;;3.63;3.33;;;29.70;94.30;;;;;;4974649;28;20382;-61
2023/08/15 14:12:25;;;;;;;3.80;3.50;;;29.70;94.40;;;;;;4974612;28;20502;-61
2023/08/15 14:14:51;;;;;;;3.57;3.27;;;29.70;94.50;;;;;;4974188;28;20200;-61
2023/08/15 14:17:16;;;;;;;3.07;2.60;;;29.60;94.60;;;;;;4974637;28;20963;-63
2023/08/15 14:19:42;;;;;;;3.03;2.73;;;29.60;94.50;;;;;;4974701;28;20187;-62
2023/08/15 14:22:08;;;;;;;2.90;2.60;;;29.50;95.10;;;;;;4974467;28;20204;-62
2023/08/15 14:24:33;;;;;;;3.43;3.13;;;29.50;96.00;;;;;;4974208;28;20200;-62
2023/08/15 14:26:59;;;;;;;3.30;3.00;;;29.50;96.00;;;;;;4957327;28;20173;-61
2023/08/15 14:29:25;;;;;;;3.43;3.13;;;29.60;95.70;;;;;;4957358;28;20176;-62
2023/08/15 14:31:50;;;;;;;4.10;3.40;;;29.60;95.70;;;;;;4974332;28;20176;-61
2023/08/15 14:34:16;;;;;;;3.20;2.60;;;29.50;95.70;;;;;;4974126;28;20531;-62
2023/08/15 14:36:42;;;;;;;3.90;2.90;;;29.40;95.30;;;;;;4974591;28;20276;-63
2023/08/15 14:39:08;;;;;;;4.87;3.30;;;29.30;95.90;;;;;;4974417;28;20403;-62
2023/08/15 14:41:33;;;;;;;3.20;3.00;;;29.30;96.60;;;;;;4974442;28;20725;-62
2023/08/15 14:43:59;;;;;;;3.33;3.13;;;29.20;96.10;;;;;;4956659;28;20176;-62
2023/08/15 14:46:25;;;;;;;3.13;2.93;;;29.20;96.00;;;;;;4974073;28;20204;-62
2023/08/15 14:48:50;;;;;;;3.33;3.13;;;29.20;95.70;;;;;;4974209;28;20425;-62
2023/08/15 14:51:16;;;;;;;3.20;2.90;;;29.10;96.10;;;;;;4974432;28;20207;-62
2023/08/15 14:53:42;;;;;;;3.37;3.07;;;29.00;95.50;;;;;;4974037;28;20263;-62
2023/08/15 14:56:07;;;;;;;3.20;3.00;;;29.00;96.80;;;;;;4974034;28;20227;-62
2023/08/15 14:58:33;;;;;;;3.60;3.00;;;29.00;96.40;;;;;;4974271;28;20210;-62
2023/08/15 15:00:58;;;;;;;3.43;2.70;;;29.00;96.30;;;;;;4974166;28;20182;-62
2023/08/15 15:03:24;;;;;;;3.30;3.00;;;28.90;96.00;;;;;;4973918;28;20172;-62
2023/08/15 15:05:49;;;;;;;3.33;3.13;;;28.90;96.00;;;;;;4973915;28;20227;-63
2023/08/15 15:08:15;;;;;;;2.87;2.67;;;28.90;96.10;;;;;;4974285;28;20171;-62
2023/08/15 15:10:41;;;;;;;3.23;3.03;;;28.90;96.70;;;;;;4976777;28;20171;-62
2023/08/15 15:13:06;;;;;;;4.20;3.67;;;29.00;97.00;;;;;;4977596;28;20176;-63
2023/08/15 15:15:32;;;;;;;3.03;2.83;;;28.90;96.00;;;;;;4977167;28;20239;-62
2023/08/15 15:17:57;;;;;;;2.93;2.60;;;28.90;96.00;;;;;;4977734;28;20202;-62
2023/08/15 15:20:23;;;;;;;3.23;2.93;;;28.80;96.30;;;;;;4977731;28;20527;-62
2023/08/15 15:22:49;;;;;;;3.40;2.63;;;28.80;96.10;;;;;;4977504;28;20311;-62
2023/08/15 15:25:15;;;;;;;3.30;3.00;;;28.70;96.40;;;;;;4977273;28;20561;-62
2023/08/15 15:27:40;;;;;;;3.53;3.23;;;28.70;96.90;;;;;;4977568;28;20179;-62
2023/08/15 15:30:07;;;;;;;3.53;3.23;;;28.70;97.30;;;;;;4977305;28;20892;-62
2023/08/15 15:32:33;;;;;;;3.63;3.27;;;28.70;97.10;;;;;;4977134;28;20183;-62
2023/08/15 15:34:59;;;;;;;3.27;3.07;;;28.70;97.10;;;;;;4976801;28;20423;-62
2023/08/15 15:37:24;;;;;;;3.53;3.30;;;28.70;97.00;;;;;;4976926;28;20538;-62
2023/08/15 15:39:50;;;;;;;3.07;2.87;;;28.60;96.80;;;;;;4977254;28;20211;-61
2023/08/15 15:42:15;;;;;;;3.33;3.10;;;28.50;97.00;;;;;;4977048;28;20615;-62
2023/08/15 15:44:41;;;;;;;3.37;3.07;;;28.50;97.10;;;;;;4976564;28;20247;-61
2023/08/15 15:47:07;;;;;;;3.17;2.93;;;28.50;97.20;;;;;;4976878;28;20246;-61
2023/08/15 15:49:32;;;;;;;2.50;2.30;;;28.40;97.60;;;;;;4977232;28;20170;-61
2023/08/15 15:51:58;;;;;;;2.73;2.53;;;28.40;97.60;;;;;;4976910;28;20186;-62
2023/08/15 15:54:24;;;;;;;2.77;2.57;;;28.30;97.10;;;;;;4976355;28;20206;-62
2023/08/15 15:56:49;;;;;;;2.60;2.40;;;28.30;97.00;;;;;;4976989;28;20505;-62
2023/08/15 15:59:16;;;;;;;2.53;2.43;;;28.20;97.30;;;;;;4976811;28;20175;-63
2023/08/15 16:01:42;;;;;;;2.00;1.90;;;28.10;97.10;;;;;;4977486;28;20214;-61
2023/08/15 16:04:07;;;;;;;2.40;2.30;;;28.00;97.00;;;;;;4976191;28;20880;-61
2023/08/15 16:06:33;;;;;;;2.10;1.90;;;27.90;97.10;;;;;;4976601;28;20210;-62
2023/08/15 16:08:58;;;;;;;2.47;2.27;;;27.90;97.00;;;;;;4976832;28;20629;-62
2023/08/15 16:11:24;;;;;;;2.13;1.70;;;27.80;97.10;;;;;;4976681;28;20173;-62
2023/08/15 16:13:50;;;;;;;1.83;1.73;;;27.70;96.90;;;;;;4976376;28;20260;-62
2023/08/15 16:16:16;;;;;;;2.00;1.90;;;27.70;96.60;;;;;;4976440;28;20197;-63
2023/08/15 16:18:41;;;;;;;2.03;1.93;;;27.60;96.80;;;;;;4976565;28;20420;-62
2023/08/15 16:21:07;;;;;;;1.87;1.77;;;27.60;97.10;;;;;;4975966;28;20173;-62
2023/08/15 16:23:33;;;;;;;1.80;1.70;;;27.50;97.00;;;;;;4976026;28;20519;-62
2023/08/15 16:25:58;;;;;;;1.90;1.80;;;27.50;97.20;;;;;;4976342;28;20252;-62
2023/08/15 16:28:24;;;;;;;2.53;2.17;;;27.50;97.40;;;;;;4976842;28;20170;-62
2023/08/15 16:30:49;;;;;;;2.67;2.47;;;27.50;97.80;;;;;;4976245;28;20245;-62
2023/08/15 16:33:15;;;;;;;2.07;1.97;;;27.40;98.00;;;;;;4976331;28;20176;-62
2023/08/15 16:35:40;;;;;;;1.80;1.70;;;27.40;98.20;;;;;;4975719;28;20201;-62
2023/08/15 16:38:06;;;;;;;2.07;1.93;;;27.40;98.30;;;;;;4958974;28;20640;-62
2023/08/15 16:40:32;;;;;;;3.30;2.80;;;27.40;98.50;;;;;;4975957;28;20181;-62
2023/08/15 16:43:14;;;;;;;2.50;2.30;;;27.40;98.80;;;;;;4975593;28;20291;-62
2023/08/15 16:45:41;;;;;;;2.53;2.37;;;27.30;98.80;;;;;;4975853;28;20197;-62
2023/08/15 16:48:08;;;;;;;2.60;2.40;;;27.30;99.10;;;;;;4976100;28;20487;-62
2023/08/15 16:50:37;;;;;;;2.10;1.90;;;27.20;99.30;;;;;;4975898;28;20383;-62